createdAt,value
2023-05-13T00:01:27.704Z,60.82
2023-05-13T00:06:33.389Z,60.64
2023-05-13T00:11:36.905Z,60.89
2023-05-13T00:16:40.564Z,60.57
2023-05-13T00:21:45.340Z,61.28
2023-05-13T00:26:48.772Z,60.96
2023-05-13T00:31:54.034Z,61.53
2023-05-13T00:37:01.359Z,61.68
2023-05-13T00:42:12.258Z,61.58
2023-05-13T00:47:17.057Z,62.04
2023-05-13T00:52:23.849Z,61.72
2023-05-13T00:57:30.692Z,62.24
2023-05-13T01:02:45.729Z,61.72
2023-05-13T01:08:05.218Z,61.44
2023-05-13T01:13:13.805Z,61.98
2023-05-13T01:18:39.277Z,60.70
2023-05-13T01:23:48.836Z,61.77
2023-05-13T01:28:52.589Z,61.83
2023-05-13T01:34:01.873Z,61.28
2023-05-13T01:39:11.851Z,61.96
2023-05-13T01:44:45.675Z,60.60
2023-05-13T01:49:55.823Z,60.74
2023-05-13T01:55:06.119Z,59.81
2023-05-13T02:00:17.462Z,61.69
2023-05-13T02:05:37.003Z,62.22
2023-05-13T02:11:11.816Z,62.02
2023-05-13T02:16:23.835Z,63.07
2023-05-13T02:21:28.427Z,63.21
2023-05-13T02:26:44.726Z,63.67
2023-05-13T02:32:14.310Z,63.12
2023-05-13T02:37:26.900Z,61.87
2023-05-13T02:43:27.356Z,62.40
2023-05-13T02:54:51.602Z,63.60
2023-05-13T03:00:30.286Z,63.76
2023-05-13T03:06:15.566Z,63.70
2023-05-13T03:17:39.408Z,61.02
2023-05-13T03:23:17.762Z,62.77
2023-05-13T03:34:55.368Z,60.84
2023-05-13T03:40:41.834Z,62.83
2023-05-13T03:46:31.349Z,64.10
2023-05-13T03:58:00.966Z,65.49
2023-05-13T04:03:04.854Z,66.07
2023-05-13T04:08:12.406Z,66.18
2023-05-13T04:13:17.440Z,65.91
2023-05-13T04:18:21.192Z,65.85
2023-05-13T04:23:26.100Z,65.81
2023-05-13T04:28:29.653Z,65.73
2023-05-13T04:33:34.373Z,66.92
2023-05-13T04:38:39.842Z,66.50
2023-05-13T04:43:43.773Z,67.16
2023-05-13T04:48:48.487Z,66.51
2023-05-13T04:53:54.502Z,66.56
2023-05-13T04:58:58.533Z,65.71
2023-05-13T05:04:02.661Z,66.59
2023-05-13T05:09:08.559Z,65.95
2023-05-13T05:14:13.017Z,65.96
2023-05-13T05:19:24.259Z,66.47
2023-05-13T05:24:31.823Z,66.69
2023-05-13T05:29:35.878Z,66.51
2023-05-13T05:34:41.176Z,66.83
2023-05-13T05:39:48.503Z,67.00
2023-05-13T05:44:52.190Z,67.90
2023-05-13T05:49:56.007Z,67.50
2023-05-13T05:55:01.314Z,66.82
2023-05-13T06:00:06.001Z,66.98
2023-05-13T06:05:18.601Z,67.41
2023-05-13T06:10:25.117Z,67.08
2023-05-13T06:15:29.796Z,67.35
2023-05-13T06:20:34.058Z,67.24
2023-05-13T06:25:39.071Z,66.51
2023-05-13T06:30:46.127Z,66.61
2023-05-13T06:35:49.970Z,66.55
2023-05-13T06:40:57.656Z,66.57
2023-05-13T06:46:08.505Z,66.52
2023-05-13T06:51:13.290Z,64.91
2023-05-13T06:56:18.624Z,65.44
2023-05-13T07:01:22.433Z,65.76
2023-05-13T07:06:26.131Z,65.02
2023-05-13T07:11:31.664Z,64.63
2023-05-13T07:16:35.390Z,65.41
2023-05-13T07:21:39.282Z,63.80
2023-05-13T07:26:44.277Z,63.72
2023-05-13T07:31:49.842Z,62.67
2023-05-13T07:36:55.361Z,63.90
2023-05-13T07:42:00.891Z,62.35
2023-05-13T07:47:05.278Z,62.30
2023-05-13T07:52:13.833Z,61.57
2023-05-13T07:57:21.514Z,62.43
2023-05-13T08:02:28.117Z,62.05
2023-05-13T08:07:31.860Z,62.21
2023-05-13T08:12:42.112Z,61.65
2023-05-13T08:17:53.781Z,61.19
2023-05-13T08:22:58.576Z,60.54
2023-05-13T08:28:04.264Z,61.21
2023-05-13T08:33:13.948Z,61.52
2023-05-13T08:38:20.049Z,61.75
2023-05-13T08:43:34.194Z,60.96
2023-05-13T08:48:47.177Z,60.40
2023-05-13T08:53:52.462Z,61.34
2023-05-13T08:58:57.508Z,59.86
2023-05-13T09:04:08.883Z,60.38
2023-05-13T09:09:12.759Z,60.91
2023-05-13T09:14:30.165Z,59.97
2023-05-13T09:19:34.056Z,60.82
2023-05-13T09:24:41.627Z,60.70
2023-05-13T09:29:52.788Z,60.46
2023-05-13T09:35:09.614Z,59.58
2023-05-13T09:40:15.102Z,60.16
2023-05-13T09:45:21.886Z,59.31
2023-05-13T09:50:26.489Z,58.84
2023-05-13T09:55:30.358Z,60.53
2023-05-13T10:00:37.484Z,59.74
2023-05-13T10:05:43.415Z,58.99
2023-05-13T10:10:49.604Z,59.11
2023-05-13T10:15:57.084Z,58.93
2023-05-13T10:21:01.228Z,59.06
2023-05-13T10:26:07.899Z,58.93
2023-05-13T10:31:12.771Z,59.38
2023-05-13T10:36:55.215Z,60.12
2023-05-13T10:42:29.810Z,59.10
2023-05-13T10:47:39.209Z,58.84
2023-05-13T10:52:44.399Z,59.03
2023-05-13T10:58:13.976Z,59.06
2023-05-13T11:03:30.335Z,58.47
2023-05-13T11:09:01.195Z,57.85
2023-05-13T11:14:10.079Z,57.05
2023-05-13T11:19:23.107Z,56.95
2023-05-13T11:24:28.045Z,56.89
2023-05-13T11:29:33.366Z,56.49
2023-05-13T11:34:39.514Z,57.10
2023-05-13T11:39:43.193Z,57.45
2023-05-13T11:44:48.177Z,57.15
2023-05-13T11:49:53.452Z,56.00
2023-05-13T11:54:59.190Z,55.45
2023-05-13T12:00:05.693Z,55.70
2023-05-13T12:05:13.701Z,53.87
2023-05-13T12:10:18.171Z,56.12
2023-05-13T12:15:23.666Z,54.12
2023-05-13T12:20:28.752Z,54.19
2023-05-13T12:25:44.245Z,55.53
2023-05-13T12:30:53.517Z,54.74
2023-05-13T12:36:20.182Z,55.97
2023-05-13T12:41:25.877Z,54.88
2023-05-13T12:46:30.558Z,54.20
2023-05-13T12:51:35.897Z,52.17
2023-05-13T12:56:40.321Z,51.26
2023-05-13T13:01:44.128Z,51.58
2023-05-13T13:06:49.197Z,52.50
2023-05-13T13:11:52.858Z,51.94
2023-05-13T13:16:56.509Z,51.52
2023-05-13T13:22:01.698Z,52.18
2023-05-13T13:27:05.596Z,53.37
2023-05-13T13:32:09.630Z,49.40
2023-05-13T13:37:16.132Z,52.24
2023-05-13T13:42:19.831Z,49.98
2023-05-13T13:47:23.560Z,49.90
2023-05-13T13:52:29.085Z,51.22
2023-05-13T13:57:32.731Z,49.68
2023-05-13T14:02:36.503Z,49.57
2023-05-13T14:07:41.761Z,50.56
2023-05-13T14:12:45.602Z,51.20
2023-05-13T14:17:49.308Z,50.14
2023-05-13T14:22:54.478Z,51.80
2023-05-13T14:27:58.109Z,50.11
2023-05-13T14:33:01.767Z,50.69
2023-05-13T14:38:06.808Z,51.07
2023-05-13T14:43:10.557Z,50.86
2023-05-13T14:48:14.688Z,49.68
2023-05-13T14:53:19.704Z,50.63
2023-05-13T14:58:23.370Z,50.26
2023-05-13T15:03:27.006Z,50.14
2023-05-13T15:08:32.147Z,49.07
2023-05-13T15:13:36.961Z,49.25
2023-05-13T15:18:41.071Z,48.89
2023-05-13T15:23:46.027Z,49.74
2023-05-13T15:28:49.542Z,50.17
2023-05-13T15:33:53.128Z,48.57
2023-05-13T15:38:58.113Z,48.68
2023-05-13T15:44:01.809Z,48.12
2023-05-13T15:49:05.424Z,48.73
2023-05-13T15:54:10.263Z,50.50
2023-05-13T15:59:13.990Z,50.06
2023-05-13T16:04:17.903Z,50.90
2023-05-13T16:09:22.954Z,51.04
2023-05-13T16:14:26.614Z,50.79
2023-05-13T16:19:30.231Z,50.08
2023-05-13T16:24:35.089Z,51.87
2023-05-13T16:29:38.627Z,51.06
2023-05-13T16:34:42.660Z,51.64
2023-05-13T16:39:47.733Z,52.25
2023-05-13T16:44:51.658Z,50.93
2023-05-13T16:49:56.265Z,51.31
2023-05-13T16:55:01.227Z,52.64
2023-05-13T17:00:05.545Z,52.56
2023-05-13T17:05:09.517Z,52.09
2023-05-13T17:10:14.655Z,52.96
2023-05-13T17:15:18.537Z,52.74
2023-05-13T17:20:22.592Z,52.42
2023-05-13T17:25:28.037Z,52.26
2023-05-13T17:30:32.033Z,52.38
2023-05-13T17:35:35.897Z,51.68
2023-05-13T17:40:41.071Z,52.99
2023-05-13T17:45:45.243Z,52.85
2023-05-13T17:50:49.011Z,51.60
2023-05-13T17:55:54.601Z,52.73
2023-05-13T18:00:58.275Z,51.52
2023-05-13T18:06:02.027Z,53.02
2023-05-13T18:11:07.403Z,52.54
2023-05-13T18:16:11.748Z,53.51
2023-05-13T18:21:15.430Z,52.38
2023-05-13T18:26:20.865Z,52.88
2023-05-13T18:31:24.492Z,52.02
2023-05-13T18:36:28.368Z,54.43
2023-05-13T18:41:33.444Z,52.82
2023-05-13T18:46:37.108Z,53.05
2023-05-13T18:51:40.699Z,53.88
2023-05-13T18:56:45.859Z,52.90
2023-05-13T19:01:49.983Z,53.00
2023-05-13T19:06:53.750Z,53.85
2023-05-13T19:11:58.767Z,53.42
2023-05-13T19:17:02.504Z,53.67
2023-05-13T19:22:06.609Z,53.98
2023-05-13T19:27:11.697Z,53.95
2023-05-13T19:32:15.396Z,53.96
2023-05-13T19:37:19.078Z,54.47
2023-05-13T19:42:24.327Z,54.68
2023-05-13T19:47:30.500Z,55.63
2023-05-13T19:52:34.319Z,55.88
2023-05-13T19:57:42.414Z,55.00
2023-05-13T20:02:46.443Z,55.91
2023-05-13T20:07:50.172Z,55.44
2023-05-13T20:12:55.264Z,55.37
2023-05-13T20:17:59.152Z,55.00
2023-05-13T20:23:02.772Z,54.91
2023-05-13T20:28:07.962Z,55.21
2023-05-13T20:33:11.685Z,54.77
2023-05-13T20:38:15.198Z,55.50
2023-05-13T20:43:20.115Z,55.63
2023-05-13T20:48:23.706Z,55.44
2023-05-13T20:53:27.288Z,55.33
2023-05-13T20:58:32.368Z,56.03
2023-05-13T21:03:36.047Z,56.95
2023-05-13T21:08:40.258Z,57.82
2023-05-13T21:13:45.336Z,58.22
2023-05-13T21:18:49.058Z,56.90
2023-05-13T21:23:52.734Z,58.53
2023-05-13T21:28:58.820Z,57.42
2023-05-13T21:34:02.389Z,58.98
2023-05-13T21:39:06.219Z,60.03
2023-05-13T21:44:11.428Z,60.31
2023-05-13T21:49:15.199Z,61.03
2023-05-13T21:54:20.248Z,60.40
2023-05-13T21:59:25.195Z,60.49
2023-05-13T22:04:28.796Z,60.14
2023-05-13T22:09:32.743Z,60.54
2023-05-13T22:14:37.782Z,60.89
2023-05-13T22:19:41.706Z,62.05
2023-05-13T22:24:45.440Z,62.13
2023-05-13T22:29:50.631Z,62.26
2023-05-13T22:34:54.188Z,62.17
2023-05-13T22:39:57.846Z,62.78
2023-05-13T22:45:02.902Z,62.62
2023-05-13T22:50:07.566Z,63.10
2023-05-13T22:55:11.644Z,63.40
2023-05-13T23:00:17.545Z,62.80
2023-05-13T23:05:21.332Z,62.58
2023-05-13T23:10:25.016Z,63.13
2023-05-13T23:15:30.026Z,63.73
2023-05-13T23:20:33.546Z,62.99
2023-05-13T23:25:37.147Z,62.83
2023-05-13T23:30:42.827Z,62.58
2023-05-13T23:35:46.377Z,62.83
2023-05-13T23:40:50.194Z,62.85
2023-05-13T23:45:55.489Z,63.06
2023-05-13T23:50:59.186Z,63.10
2023-05-13T23:56:02.856Z,63.53
